createdAt,value
2019-03-13T00:00:57.854Z,145.03
2019-03-13T00:03:25.696Z,134.77
2019-03-13T00:05:53.441Z,131.10
2019-03-13T00:08:21.180Z,145.70
2019-03-13T00:10:48.790Z,132.93
2019-03-13T00:13:16.608Z,136.33
2019-03-13T00:15:44.477Z,141.37
2019-03-13T00:18:12.181Z,136.73
2019-03-13T00:20:39.686Z,139.30
2019-03-13T00:23:07.367Z,152.63
2019-03-13T00:25:35.004Z,141.40
2019-03-13T00:28:02.860Z,150.30
2019-03-13T00:30:30.661Z,137.27
2019-03-13T00:32:58.375Z,135.07
2019-03-13T00:35:26.014Z,135.57
2019-03-13T00:37:53.466Z,135.33
2019-03-13T00:40:21.347Z,135.53
2019-03-13T00:42:48.770Z,137.60
2019-03-13T00:45:16.308Z,140.07
2019-03-13T00:47:43.829Z,137.73
2019-03-13T00:50:24.985Z,135.47
2019-03-13T00:52:52.496Z,142.50
2019-03-13T00:55:21.668Z,143.80
2019-03-13T00:57:49.290Z,130.93
2019-03-13T01:00:31.605Z,145.27
2019-03-13T01:02:59.170Z,127.93
2019-03-13T01:05:32.887Z,147.23
2019-03-13T01:08:00.601Z,132.00
2019-03-13T01:10:28.612Z,130.43
2019-03-13T01:12:56.085Z,133.67
2019-03-13T01:15:23.724Z,130.30
2019-03-13T01:17:51.303Z,129.47
2019-03-13T01:20:18.922Z,139.03
2019-03-13T01:22:47.101Z,141.93
2019-03-13T01:25:15.726Z,139.53
2019-03-13T01:27:44.052Z,142.87
2019-03-13T01:30:12.115Z,140.33
2019-03-13T01:32:50.707Z,138.80
2019-03-13T01:35:24.796Z,145.00
2019-03-13T01:37:52.763Z,131.63
2019-03-13T01:40:20.472Z,143.00
2019-03-13T01:42:48.063Z,137.60
2019-03-13T01:45:15.666Z,141.23
2019-03-13T01:47:43.366Z,150.60
2019-03-13T01:50:11.202Z,145.10
2019-03-13T01:52:38.783Z,140.60
2019-03-13T01:55:06.580Z,146.43
2019-03-13T01:57:35.478Z,150.03
2019-03-13T02:00:04.042Z,138.43
2019-03-13T02:02:31.693Z,139.63
2019-03-13T02:04:59.445Z,141.07
2019-03-13T02:07:27.096Z,143.80
2019-03-13T02:09:54.769Z,146.20
2019-03-13T02:12:22.385Z,147.10
2019-03-13T02:14:50.097Z,151.43
2019-03-13T02:17:19.346Z,144.43
2019-03-13T02:19:49.740Z,169.03
2019-03-13T02:22:17.697Z,147.73
2019-03-13T02:24:45.566Z,154.33
2019-03-13T02:27:12.917Z,143.13
2019-03-13T02:29:40.469Z,149.57
2019-03-13T02:32:07.894Z,133.43
2019-03-13T02:34:35.615Z,145.20
2019-03-13T02:37:03.407Z,137.17
2019-03-13T02:39:32.036Z,143.63
2019-03-13T02:41:59.457Z,137.90
2019-03-13T02:44:27.007Z,149.90
2019-03-13T02:46:56.733Z,137.23
2019-03-13T02:49:24.192Z,147.87
2019-03-13T02:51:51.961Z,142.73
2019-03-13T02:54:19.645Z,153.70
2019-03-13T02:56:47.176Z,148.37
2019-03-13T02:59:19.772Z,155.57
2019-03-13T03:02:07.017Z,139.17
2019-03-13T03:04:34.809Z,139.30
2019-03-13T03:07:03.765Z,138.07
2019-03-13T03:09:31.534Z,143.93
2019-03-13T03:11:59.131Z,131.70
2019-03-13T03:14:26.582Z,137.80
2019-03-13T03:16:54.063Z,128.93
2019-03-13T03:19:21.585Z,151.20
2019-03-13T03:21:49.191Z,124.70
2019-03-13T03:24:17.638Z,142.83
2019-03-13T03:26:45.935Z,131.77
2019-03-13T03:29:13.605Z,138.77
2019-03-13T03:31:41.158Z,135.97
2019-03-13T03:34:09.165Z,147.53
2019-03-13T03:36:37.290Z,131.70
2019-03-13T03:39:06.941Z,135.47
2019-03-13T03:41:36.722Z,134.80
2019-03-13T03:44:04.409Z,145.30
2019-03-13T03:46:32.139Z,143.53
2019-03-13T03:49:00.733Z,135.40
2019-03-13T03:51:28.105Z,129.10
2019-03-13T03:53:55.771Z,132.50
2019-03-13T03:56:23.257Z,129.63
2019-03-13T03:58:50.853Z,131.47
2019-03-13T04:01:18.317Z,127.67
2019-03-13T04:03:45.933Z,136.40
2019-03-13T04:06:13.733Z,129.77
2019-03-13T04:08:41.453Z,129.03
2019-03-13T04:11:10.293Z,144.23
2019-03-13T04:13:37.820Z,125.10
2019-03-13T04:16:05.394Z,132.57
2019-03-13T04:18:32.959Z,127.20
2019-03-13T04:21:00.597Z,128.77
2019-03-13T04:23:27.969Z,142.20
2019-03-13T04:25:55.725Z,140.40
2019-03-13T04:28:23.226Z,141.00
2019-03-13T04:30:51.654Z,139.63
2019-03-13T04:33:19.257Z,142.63
2019-03-13T04:35:47.069Z,143.20
2019-03-13T04:38:14.702Z,140.20
2019-03-13T04:40:42.083Z,131.13
2019-03-13T04:43:09.449Z,127.67
2019-03-13T04:45:36.974Z,125.07
2019-03-13T04:48:04.598Z,144.20
2019-03-13T04:50:32.220Z,127.93
2019-03-13T04:52:59.613Z,127.90
2019-03-13T04:55:27.099Z,133.73
2019-03-13T04:57:54.729Z,129.93
2019-03-13T05:00:22.389Z,134.67
2019-03-13T05:02:50.082Z,133.23
2019-03-13T05:05:55.076Z,129.00
2019-03-13T05:08:45.101Z,127.87
2019-03-13T05:11:08.735Z,134.80
2019-03-13T05:13:36.413Z,129.70
2019-03-13T05:16:04.075Z,125.70
2019-03-13T05:18:31.638Z,132.10
2019-03-13T05:20:59.183Z,134.70
2019-03-13T05:23:26.634Z,133.37
2019-03-13T05:25:54.175Z,126.17
2019-03-13T05:28:21.811Z,132.93
2019-03-13T05:30:49.307Z,132.90
2019-03-13T05:33:16.833Z,129.83
2019-03-13T05:35:44.642Z,137.13
2019-03-13T05:38:12.270Z,133.47
2019-03-13T05:40:39.743Z,126.43
2019-03-13T05:43:07.153Z,136.03
2019-03-13T05:45:36.625Z,129.40
2019-03-13T05:48:04.340Z,127.57
2019-03-13T05:50:31.819Z,127.40
2019-03-13T05:52:59.586Z,133.00
2019-03-13T05:55:27.078Z,130.07
2019-03-13T05:57:54.501Z,134.50
2019-03-13T06:00:23.465Z,135.80
2019-03-13T06:02:51.132Z,136.13
2019-03-13T06:05:18.697Z,130.23
2019-03-13T06:07:46.353Z,151.80
2019-03-13T06:10:14.238Z,134.80
2019-03-13T06:12:41.829Z,134.03
2019-03-13T06:15:11.224Z,132.17
2019-03-13T06:17:38.812Z,129.20
2019-03-13T06:20:10.248Z,139.13
2019-03-13T06:22:37.102Z,127.70
2019-03-13T06:25:05.571Z,131.07
2019-03-13T06:27:33.193Z,136.87
2019-03-13T06:30:03.250Z,144.03
2019-03-13T06:32:33.426Z,136.60
2019-03-13T06:35:01.819Z,146.90
2019-03-13T06:37:29.687Z,140.73
2019-03-13T06:39:59.989Z,142.57
2019-03-13T06:42:28.784Z,123.57
2019-03-13T06:44:56.231Z,121.93
2019-03-13T06:47:25.032Z,117.70
2019-03-13T06:49:52.775Z,131.23
2019-03-13T06:52:20.323Z,115.07
2019-03-13T06:54:47.895Z,121.43
2019-03-13T06:57:15.207Z,119.57
2019-03-13T07:00:01.082Z,125.30
2019-03-13T07:02:44.842Z,114.70
2019-03-13T07:05:20.890Z,114.10
2019-03-13T07:08:06.218Z,114.33
2019-03-13T07:10:39.196Z,111.90
2019-03-13T07:13:13.876Z,119.63
2019-03-13T07:15:51.317Z,113.57
2019-03-13T07:18:28.092Z,112.87
2019-03-13T07:21:06.642Z,114.43
2019-03-13T07:23:55.299Z,117.40
2019-03-13T07:26:35.619Z,116.30
2019-03-13T07:29:21.388Z,124.90
2019-03-13T07:31:54.259Z,115.67
2019-03-13T07:34:51.616Z,127.00
2019-03-13T07:37:37.199Z,116.77
2019-03-13T07:40:25.330Z,118.73
2019-03-13T07:43:01.999Z,129.63
2019-03-13T07:46:08.152Z,112.60
2019-03-13T07:48:48.449Z,108.83
2019-03-13T07:51:23.011Z,122.13
2019-03-13T07:54:19.058Z,112.40
2019-03-13T07:57:11.957Z,116.43
2019-03-13T08:00:14.216Z,126.27
2019-03-13T08:02:48.237Z,115.47
2019-03-13T08:05:32.743Z,112.83
2019-03-13T08:08:14.486Z,117.40
2019-03-13T08:11:07.253Z,116.93
2019-03-13T08:13:43.083Z,115.93
2019-03-13T08:16:30.751Z,126.53
2019-03-13T08:19:07.321Z,118.17
2019-03-13T08:22:05.720Z,119.50
2019-03-13T08:24:40.741Z,126.70
2019-03-13T08:27:28.553Z,121.90
2019-03-13T08:30:04.399Z,124.93
2019-03-13T08:32:59.292Z,117.37
2019-03-13T08:35:36.377Z,115.53
2019-03-13T08:38:17.856Z,114.60
2019-03-13T08:41:11.034Z,112.40
2019-03-13T08:43:47.541Z,117.23
2019-03-13T08:46:28.281Z,115.03
2019-03-13T08:49:09.324Z,124.80
2019-03-13T08:51:46.240Z,117.33
2019-03-13T08:54:23.487Z,126.33
2019-03-13T08:57:16.755Z,116.60
2019-03-13T09:00:03.747Z,130.30
2019-03-13T09:02:39.573Z,126.27
2019-03-13T09:05:26.039Z,123.47
2019-03-13T09:08:18.034Z,124.90
2019-03-13T09:11:05.889Z,119.40
2019-03-13T09:13:44.240Z,111.87
2019-03-13T09:16:31.498Z,111.53
2019-03-13T09:19:20.321Z,120.83
2019-03-13T09:21:59.552Z,119.90
2019-03-13T09:24:34.208Z,128.47
2019-03-13T09:27:19.900Z,123.27
2019-03-13T09:30:04.284Z,127.73
2019-03-13T09:32:45.398Z,113.20
2019-03-13T09:35:33.445Z,118.60
2019-03-13T09:38:18.768Z,114.70
2019-03-13T09:41:04.298Z,116.27
2019-03-13T09:43:38.211Z,114.87
2019-03-13T09:46:37.165Z,117.90
2019-03-13T09:49:36.488Z,118.63
2019-03-13T09:52:14.515Z,118.63
2019-03-13T09:55:04.731Z,122.10
2019-03-13T09:58:01.126Z,123.30
2019-03-13T10:00:48.421Z,123.13
2019-03-13T10:03:42.879Z,120.70
2019-03-13T10:06:32.887Z,121.87
2019-03-13T10:09:09.673Z,128.37
2019-03-13T10:11:45.528Z,117.50
2019-03-13T10:14:26.968Z,132.90
2019-03-13T10:17:10.486Z,123.53
2019-03-13T10:19:53.240Z,136.10
2019-03-13T10:22:42.387Z,126.00
2019-03-13T10:25:15.212Z,126.23
2019-03-13T10:27:51.336Z,131.73
2019-03-13T10:30:38.482Z,121.13
2019-03-13T10:33:15.212Z,118.77
2019-03-13T10:35:58.548Z,118.00
2019-03-13T10:38:45.699Z,123.00
2019-03-13T10:41:20.087Z,124.83
2019-03-13T10:44:10.816Z,128.07
2019-03-13T10:46:46.505Z,128.23
2019-03-13T10:49:36.184Z,126.53
2019-03-13T10:52:26.068Z,127.80
2019-03-13T10:55:06.415Z,128.80
2019-03-13T10:57:53.178Z,121.37
2019-03-13T11:00:29.432Z,127.57
2019-03-13T11:03:22.281Z,126.03
2019-03-13T11:05:59.065Z,120.43
2019-03-13T11:08:49.114Z,121.37
2019-03-13T11:11:42.425Z,121.37
2019-03-13T11:14:28.900Z,132.50
2019-03-13T11:17:03.294Z,130.50
2019-03-13T11:19:50.509Z,133.57
2019-03-13T11:22:26.775Z,120.90
2019-03-13T11:25:16.593Z,128.60
2019-03-13T11:27:52.527Z,124.87
2019-03-13T11:30:34.503Z,119.07
2019-03-13T11:33:25.039Z,123.53
2019-03-13T11:36:10.526Z,135.33
2019-03-13T11:39:15.465Z,120.17
2019-03-13T11:42:00.990Z,122.00
2019-03-13T11:44:48.815Z,129.13
2019-03-13T11:47:42.252Z,120.67
2019-03-13T11:50:22.882Z,120.97
2019-03-13T11:53:04.768Z,118.10
2019-03-13T11:55:57.756Z,121.50
2019-03-13T11:58:43.100Z,116.63
2019-03-13T12:01:20.781Z,117.67
2019-03-13T12:04:26.959Z,115.23
2019-03-13T12:07:29.002Z,119.27
2019-03-13T12:10:11.820Z,129.23
2019-03-13T12:12:49.729Z,120.30
2019-03-13T12:15:37.853Z,117.03
2019-03-13T12:18:25.060Z,119.67
2019-03-13T12:21:12.797Z,115.73
2019-03-13T12:23:55.831Z,130.30
2019-03-13T12:26:33.050Z,118.93
2019-03-13T12:29:16.028Z,137.30
2019-03-13T12:31:53.892Z,119.00
2019-03-13T12:34:41.055Z,130.93
2019-03-13T12:37:40.617Z,111.67
2019-03-13T12:40:31.295Z,125.90
2019-03-13T12:43:24.330Z,119.97
2019-03-13T12:46:23.509Z,115.60
2019-03-13T12:49:16.762Z,117.40
2019-03-13T12:51:58.127Z,118.00
2019-03-13T12:54:44.982Z,132.43
2019-03-13T12:57:29.499Z,119.70
2019-03-13T13:00:07.675Z,120.50
2019-03-13T13:03:03.974Z,127.63
2019-03-13T13:05:44.655Z,125.63
2019-03-13T13:08:21.241Z,131.37
2019-03-13T13:11:06.069Z,120.97
2019-03-13T13:13:58.784Z,121.37
2019-03-13T13:16:34.239Z,130.67
2019-03-13T13:19:01.702Z,129.07
2019-03-13T13:21:29.040Z,131.73
2019-03-13T13:23:56.666Z,129.37
2019-03-13T13:26:24.346Z,132.97
2019-03-13T13:28:51.882Z,133.20
2019-03-13T13:31:19.522Z,133.53
2019-03-13T13:33:48.097Z,136.30
2019-03-13T13:36:15.797Z,129.30
2019-03-13T13:38:43.766Z,130.50
2019-03-13T13:41:11.443Z,122.60
2019-03-13T13:43:38.951Z,127.83
2019-03-13T13:46:39.241Z,131.57
2019-03-13T13:49:07.946Z,138.20
2019-03-13T13:51:35.745Z,126.43
2019-03-13T13:54:03.640Z,142.33
2019-03-13T13:56:31.092Z,129.10
2019-03-13T13:58:59.672Z,147.13
2019-03-13T14:01:27.297Z,127.47
2019-03-13T14:03:54.860Z,132.47
2019-03-13T14:06:22.513Z,134.37
2019-03-13T14:08:50.683Z,135.17
2019-03-13T14:11:18.278Z,126.17
2019-03-13T14:13:45.614Z,139.07
2019-03-13T14:16:13.088Z,129.20
2019-03-13T14:18:40.620Z,131.20
2019-03-13T14:21:08.252Z,137.83
2019-03-13T14:23:35.858Z,134.90
2019-03-13T14:26:04.483Z,130.40
2019-03-13T14:28:32.004Z,128.10
2019-03-13T14:30:59.780Z,136.57
2019-03-13T14:33:27.188Z,133.97
2019-03-13T14:35:54.719Z,151.63
2019-03-13T14:38:23.432Z,131.37
2019-03-13T14:40:54.048Z,140.90
2019-03-13T14:43:21.459Z,128.67
2019-03-13T14:47:36.946Z,123.30
2019-03-13T14:50:29.057Z,130.00
2019-03-13T14:52:57.726Z,136.60
2019-03-13T14:55:25.254Z,117.67
2019-03-13T14:57:52.893Z,122.07
2019-03-13T15:00:20.869Z,118.20
2019-03-13T15:02:48.728Z,124.37
2019-03-13T15:05:17.257Z,122.87
2019-03-13T15:07:45.290Z,151.93
2019-03-13T15:10:13.739Z,121.37
2019-03-13T15:12:43.112Z,145.73
2019-03-13T15:15:12.973Z,127.80
2019-03-13T15:17:40.680Z,120.37
2019-03-13T15:20:12.112Z,123.10
2019-03-13T15:22:39.919Z,117.83
2019-03-13T15:25:08.292Z,118.23
2019-03-13T15:27:35.951Z,115.10
2019-03-13T15:30:06.526Z,122.13
2019-03-13T15:32:34.390Z,124.47
2019-03-13T15:35:01.909Z,118.83
2019-03-13T15:37:29.359Z,122.40
2019-03-13T15:39:56.988Z,127.47
2019-03-13T15:42:24.450Z,118.77
2019-03-13T15:44:51.798Z,139.50
2019-03-13T15:47:20.448Z,119.17
2019-03-13T15:49:47.982Z,123.03
2019-03-13T15:52:15.540Z,123.57
2019-03-13T15:54:42.896Z,130.40
2019-03-13T15:57:10.491Z,121.30
2019-03-13T15:59:38.145Z,134.80
2019-03-13T16:02:05.784Z,126.00
2019-03-13T16:04:36.466Z,128.77
2019-03-13T16:07:03.973Z,127.37
2019-03-13T16:09:32.995Z,128.50
2019-03-13T16:12:00.341Z,129.33
2019-03-13T16:14:29.264Z,124.83
2019-03-13T16:16:56.715Z,116.83
2019-03-13T16:19:24.551Z,141.53
2019-03-13T16:21:52.043Z,140.67
2019-03-13T16:24:19.499Z,148.67
2019-03-13T16:26:46.967Z,125.80
2019-03-13T16:29:14.490Z,140.57
2019-03-13T16:31:41.950Z,118.30
2019-03-13T16:34:09.679Z,139.33
2019-03-13T16:36:37.302Z,127.67
2019-03-13T16:39:05.882Z,129.03
2019-03-13T16:41:35.216Z,120.60
2019-03-13T16:44:04.478Z,125.27
2019-03-13T16:46:34.912Z,124.80
2019-03-13T16:49:03.132Z,126.00
2019-03-13T16:51:30.777Z,125.13
2019-03-13T16:53:59.767Z,135.50
2019-03-13T16:56:27.228Z,116.20
2019-03-13T16:58:54.712Z,136.80
2019-03-13T17:01:22.198Z,126.07
2019-03-13T17:03:50.876Z,127.23
2019-03-13T17:06:18.269Z,115.37
2019-03-13T17:08:46.083Z,124.07
2019-03-13T17:11:13.552Z,126.53
2019-03-13T17:13:41.495Z,118.73
2019-03-13T17:16:09.199Z,128.10
2019-03-13T17:18:36.856Z,128.87
2019-03-13T17:21:05.413Z,124.50
2019-03-13T17:23:32.963Z,141.27
2019-03-13T17:26:00.397Z,126.40
2019-03-13T17:28:28.493Z,128.30
2019-03-13T17:30:56.678Z,129.10
2019-03-13T17:33:24.858Z,139.20
2019-03-13T17:35:52.683Z,120.47
2019-03-13T17:38:58.306Z,118.93
2019-03-13T17:41:25.987Z,151.43
2019-03-13T17:43:56.687Z,132.97
2019-03-13T17:46:25.801Z,137.97
2019-03-13T17:48:54.385Z,135.70
2019-03-13T17:51:22.605Z,138.57
2019-03-13T17:53:52.711Z,130.97
2019-03-13T17:56:20.648Z,146.10
2019-03-13T17:58:49.568Z,148.87
2019-03-13T18:01:18.512Z,133.70
2019-03-13T18:03:46.049Z,135.83
2019-03-13T18:06:13.660Z,127.97
2019-03-13T18:08:42.114Z,126.77
2019-03-13T18:11:10.776Z,139.10
2019-03-13T18:13:38.982Z,121.27
2019-03-13T18:16:08.541Z,126.20
2019-03-13T18:18:36.572Z,133.93
2019-03-13T18:21:04.167Z,127.33
2019-03-13T18:23:31.689Z,120.23
2019-03-13T18:25:59.627Z,127.10
2019-03-13T18:28:27.868Z,130.40
2019-03-13T18:30:55.402Z,116.17
2019-03-13T18:33:23.229Z,128.87
2019-03-13T18:35:51.178Z,134.83
2019-03-13T18:38:18.749Z,125.13
2019-03-13T18:40:46.443Z,116.97
2019-03-13T18:43:13.986Z,130.93
2019-03-13T18:45:41.709Z,120.93
2019-03-13T18:48:09.318Z,129.03
2019-03-13T18:50:36.852Z,145.17
2019-03-13T18:53:04.597Z,150.50
2019-03-13T18:55:33.105Z,159.63
2019-03-13T18:58:00.664Z,143.53
2019-03-13T19:00:29.723Z,158.93
2019-03-13T19:02:58.138Z,162.77
2019-03-13T19:05:26.815Z,154.87
2019-03-13T19:07:55.504Z,155.07
2019-03-13T19:10:24.618Z,148.97
2019-03-13T19:12:58.154Z,157.83
2019-03-13T19:15:27.130Z,151.73
2019-03-13T19:18:05.406Z,149.50
2019-03-13T19:20:36.296Z,140.20
2019-03-13T19:23:08.054Z,137.23
2019-03-13T19:25:39.751Z,140.47
2019-03-13T19:28:08.412Z,129.33
2019-03-13T19:30:37.892Z,140.30
2019-03-13T19:33:06.586Z,139.47
2019-03-13T19:35:34.469Z,138.03
2019-03-13T19:38:05.152Z,149.93
2019-03-13T19:40:31.732Z,141.60
2019-03-13T19:42:59.534Z,139.17
2019-03-13T19:45:31.120Z,132.10
2019-03-13T19:48:01.140Z,134.63
2019-03-13T19:50:28.474Z,130.73
2019-03-13T19:52:56.327Z,138.37
2019-03-13T19:55:23.703Z,147.07
2019-03-13T19:57:51.634Z,135.33
2019-03-13T20:00:20.671Z,139.70
2019-03-13T20:02:59.416Z,129.13
2019-03-13T20:05:21.348Z,129.07
2019-03-13T20:07:50.499Z,129.67
2019-03-13T20:10:25.798Z,123.77
2019-03-13T20:12:55.833Z,122.87
2019-03-13T20:15:26.483Z,125.10
2019-03-13T20:18:00.057Z,120.93
2019-03-13T20:20:29.235Z,134.03
2019-03-13T20:23:04.323Z,128.90
2019-03-13T20:25:33.203Z,136.67
2019-03-13T20:28:01.639Z,136.37
2019-03-13T20:30:31.250Z,127.33
2019-03-13T20:33:00.552Z,125.73
2019-03-13T20:35:28.848Z,128.23
2019-03-13T20:37:57.825Z,129.47
2019-03-13T20:40:26.524Z,130.33
2019-03-13T20:42:55.932Z,131.50
2019-03-13T20:45:24.169Z,130.33
2019-03-13T20:47:53.197Z,129.23
2019-03-13T20:50:35.207Z,135.97
2019-03-13T20:52:51.452Z,125.83
2019-03-13T20:55:19.845Z,136.87
2019-03-13T20:57:47.978Z,126.60
2019-03-13T21:00:19.695Z,145.87
2019-03-13T21:02:47.469Z,140.73
2019-03-13T21:05:15.094Z,129.90
2019-03-13T21:07:42.859Z,120.97
2019-03-13T21:10:10.691Z,129.30
2019-03-13T21:12:38.668Z,131.87
2019-03-13T21:15:07.708Z,132.43
2019-03-13T21:17:36.509Z,138.93
2019-03-13T21:20:05.652Z,132.60
2019-03-13T21:22:33.313Z,132.40
2019-03-13T21:25:00.717Z,136.90
2019-03-13T21:27:28.334Z,134.13
2019-03-13T21:29:56.080Z,131.53
2019-03-13T21:32:28.859Z,139.70
2019-03-13T21:34:56.102Z,133.23
2019-03-13T21:37:23.661Z,130.70
2019-03-13T21:39:51.812Z,157.97
2019-03-13T21:42:19.323Z,130.30
2019-03-13T21:44:46.691Z,137.73
2019-03-13T21:47:14.271Z,132.67
2019-03-13T21:49:41.972Z,141.73
2019-03-13T21:52:09.493Z,133.37
2019-03-13T21:54:37.831Z,131.60
2019-03-13T21:57:05.786Z,116.50
2019-03-13T21:59:34.063Z,129.73
2019-03-13T22:02:02.304Z,123.87
2019-03-13T22:04:29.788Z,126.53
2019-03-13T22:06:57.648Z,129.67
2019-03-13T22:09:25.240Z,129.77
2019-03-13T22:11:52.624Z,124.50
2019-03-13T22:14:20.182Z,129.10
2019-03-13T22:16:47.609Z,125.63
2019-03-13T22:19:15.273Z,128.87
2019-03-13T22:21:42.821Z,120.90
2019-03-13T22:24:10.202Z,126.00
2019-03-13T22:26:37.666Z,129.07
2019-03-13T22:29:06.051Z,143.60
2019-03-13T22:31:33.807Z,129.20
2019-03-13T22:34:02.567Z,126.27
2019-03-13T22:36:29.929Z,126.87
2019-03-13T22:38:57.515Z,125.07
2019-03-13T22:41:25.518Z,128.30
2019-03-13T22:43:53.050Z,124.87
2019-03-13T22:46:20.504Z,127.10
2019-03-13T22:48:57.707Z,130.93
2019-03-13T22:51:17.313Z,124.40
2019-03-13T22:53:44.976Z,113.57
2019-03-13T22:56:15.371Z,127.63
2019-03-13T22:58:44.907Z,124.23
2019-03-13T23:01:15.019Z,117.90
2019-03-13T23:03:44.484Z,122.17
2019-03-13T23:06:11.892Z,115.93
2019-03-13T23:08:39.526Z,108.83
2019-03-13T23:11:06.984Z,120.83
2019-03-13T23:13:34.502Z,124.87
2019-03-13T23:16:02.099Z,117.53
2019-03-13T23:18:29.552Z,117.47
2019-03-13T23:20:57.145Z,122.37
2019-03-13T23:23:24.550Z,127.90
2019-03-13T23:25:52.167Z,134.17
2019-03-13T23:28:19.687Z,122.50
2019-03-13T23:30:49.845Z,116.83
2019-03-13T23:33:17.361Z,121.77
2019-03-13T23:35:44.715Z,118.10
2019-03-13T23:38:12.177Z,121.17
2019-03-13T23:40:39.721Z,120.40
2019-03-13T23:43:08.141Z,115.00
2019-03-13T23:45:35.664Z,110.33
2019-03-13T23:48:03.279Z,121.83
2019-03-13T23:50:30.836Z,114.33
2019-03-13T23:52:58.236Z,118.17
2019-03-13T23:55:25.808Z,118.57
2019-03-13T23:57:53.134Z,116.03
